sensor_id;sensor_type;location;lat;lon;timestamp;pressure;altitude;pressure_sealevel;temperature;humidity
68226;BME280;55045;49.410;11.030;2022-09-09T00:01:32;97810.75;;;12.29;100.00
68226;BME280;55045;49.410;11.030;2022-09-09T00:04:39;97810.19;;;12.38;100.00
68226;BME280;55045;49.410;11.030;2022-09-09T00:07:47;97803.50;;;12.20;100.00
68226;BME280;55045;49.410;11.030;2022-09-09T00:10:56;97799.97;;;12.07;100.00
68226;BME280;55045;49.410;11.030;2022-09-09T00:14:10;97788.34;;;12.13;100.00
68226;BME280;55045;49.410;11.030;2022-09-09T00:17:26;97794.97;;;12.47;100.00
68226;BME280;55045;49.410;11.030;2022-09-09T00:20:40;97794.38;;;12.13;100.00
68226;BME280;55045;49.410;11.030;2022-09-09T00:23:51;97769.66;;;11.92;100.00
68226;BME280;55045;49.410;11.030;2022-09-09T00:27:00;97800.31;;;12.15;100.00
68226;BME280;55045;49.410;11.030;2022-09-09T00:30:15;97800.13;;;12.04;100.00
68226;BME280;55045;49.410;11.030;2022-09-09T00:33:23;97796.88;;;11.86;100.00
68226;BME280;55045;49.410;11.030;2022-09-09T00:36:27;97787.94;;;11.90;100.00
68226;BME280;55045;49.410;11.030;2022-09-09T00:39:34;97769.69;;;12.20;100.00
68226;BME280;55045;49.410;11.030;2022-09-09T00:42:41;97785.84;;;11.97;100.00
68226;BME280;55045;49.410;11.030;2022-09-09T00:46:04;97769.88;;;12.17;100.00
68226;BME280;55045;49.410;11.030;2022-09-09T00:49:16;97785.00;;;11.96;100.00
68226;BME280;55045;49.410;11.030;2022-09-09T00:52:29;97789.31;;;11.81;100.00
68226;BME280;55045;49.410;11.030;2022-09-09T00:55:40;97792.31;;;12.04;100.00
68226;BME280;55045;49.410;11.030;2022-09-09T00:58:50;97788.09;;;12.31;100.00
68226;BME280;55045;49.410;11.030;2022-09-09T01:01:57;97784.34;;;12.35;100.00
68226;BME280;55045;49.410;11.030;2022-09-09T01:05:05;97792.22;;;11.91;100.00
68226;BME280;55045;49.410;11.030;2022-09-09T01:08:18;97791.19;;;11.79;100.00
68226;BME280;55045;49.410;11.030;2022-09-09T01:11:36;97794.25;;;11.86;100.00
68226;BME280;55045;49.410;11.030;2022-09-09T01:14:48;97801.38;;;11.82;100.00
68226;BME280;55045;49.410;11.030;2022-09-09T01:17:59;97797.59;;;11.88;100.00
68226;BME280;55045;49.410;11.030;2022-09-09T01:21:13;97796.19;;;11.82;100.00
68226;BME280;55045;49.410;11.030;2022-09-09T01:24:26;97794.75;;;11.77;100.00
68226;BME280;55045;49.410;11.030;2022-09-09T01:28:00;97797.53;;;11.74;100.00
68226;BME280;55045;49.410;11.030;2022-09-09T01:31:09;97794.69;;;11.63;100.00
68226;BME280;55045;49.410;11.030;2022-09-09T01:34:18;97802.53;;;11.93;100.00
68226;BME280;55045;49.410;11.030;2022-09-09T01:37:22;97797.84;;;11.83;100.00
68226;BME280;55045;49.410;11.030;2022-09-09T01:40:27;97794.41;;;11.83;100.00
68226;BME280;55045;49.410;11.030;2022-09-09T01:43:33;97793.94;;;12.06;100.00
68226;BME280;55045;49.410;11.030;2022-09-09T01:46:37;97802.13;;;11.85;100.00
68226;BME280;55045;49.410;11.030;2022-09-09T01:49:45;97791.09;;;11.81;100.00
68226;BME280;55045;49.410;11.030;2022-09-09T01:52:57;97770.25;;;11.67;100.00
68226;BME280;55045;49.410;11.030;2022-09-09T01:56:11;97772.06;;;11.80;100.00
68226;BME280;55045;49.410;11.030;2022-09-09T01:59:34;97781.00;;;11.91;100.00
68226;BME280;55045;49.410;11.030;2022-09-09T02:02:47;97787.81;;;11.77;100.00
68226;BME280;55045;49.410;11.030;2022-09-09T02:06:04;97788.28;;;11.84;100.00
68226;BME280;55045;49.410;11.030;2022-09-09T02:09:12;97781.63;;;11.80;100.00
68226;BME280;55045;49.410;11.030;2022-09-09T02:12:19;97782.94;;;12.16;100.00
68226;BME280;55045;49.410;11.030;2022-09-09T02:15:34;97777.41;;;12.07;100.00
68226;BME280;55045;49.410;11.030;2022-09-09T02:18:45;97777.13;;;12.12;100.00
68226;BME280;55045;49.410;11.030;2022-09-09T02:21:55;97775.50;;;11.95;100.00
68226;BME280;55045;49.410;11.030;2022-09-09T02:25:00;97777.22;;;11.96;100.00
68226;BME280;55045;49.410;11.030;2022-09-09T02:28:07;97772.09;;;12.23;100.00
68226;BME280;55045;49.410;11.030;2022-09-09T02:31:14;97776.75;;;12.18;100.00
68226;BME280;55045;49.410;11.030;2022-09-09T02:34:20;97765.09;;;11.95;100.00
68226;BME280;55045;49.410;11.030;2022-09-09T02:37:29;97778.09;;;11.95;100.00
68226;BME280;55045;49.410;11.030;2022-09-09T02:40:35;97770.06;;;12.14;100.00
68226;BME280;55045;49.410;11.030;2022-09-09T02:43:38;97768.66;;;12.08;100.00
68226;BME280;55045;49.410;11.030;2022-09-09T02:47:05;97776.03;;;12.16;100.00
68226;BME280;55045;49.410;11.030;2022-09-09T02:50:13;97775.69;;;11.92;100.00
68226;BME280;55045;49.410;11.030;2022-09-09T02:53:21;97777.78;;;12.30;100.00
68226;BME280;55045;49.410;11.030;2022-09-09T02:56:30;97787.13;;;11.90;100.00
68226;BME280;55045;49.410;11.030;2022-09-09T02:59:36;97776.19;;;11.99;100.00
68226;BME280;55045;49.410;11.030;2022-09-09T03:02:41;97775.78;;;12.05;100.00
68226;BME280;55045;49.410;11.030;2022-09-09T03:05:45;97780.78;;;11.94;100.00
68226;BME280;55045;49.410;11.030;2022-09-09T03:08:48;97776.91;;;11.87;100.00
68226;BME280;55045;49.410;11.030;2022-09-09T03:11:57;97779.88;;;11.95;100.00
68226;BME280;55045;49.410;11.030;2022-09-09T03:15:02;97782.59;;;11.77;100.00
68226;BME280;55045;49.410;11.030;2022-09-09T03:18:07;97775.91;;;11.73;100.00
68226;BME280;55045;49.410;11.030;2022-09-09T03:21:10;97778.13;;;11.65;100.00
68226;BME280;55045;49.410;11.030;2022-09-09T03:24:15;97770.59;;;11.91;100.00
68226;BME280;55045;49.410;11.030;2022-09-09T03:27:19;97769.66;;;11.92;100.00
68226;BME280;55045;49.410;11.030;2022-09-09T03:34:16;97752.25;;;12.08;100.00
68226;BME280;55045;49.410;11.030;2022-09-09T03:37:20;97771.34;;;11.93;100.00
68226;BME280;55045;49.410;11.030;2022-09-09T03:40:25;97773.06;;;11.78;100.00
68226;BME280;55045;49.410;11.030;2022-09-09T03:43:28;97770.25;;;11.97;100.00
68226;BME280;55045;49.410;11.030;2022-09-09T03:46:33;97770.53;;;12.21;100.00
68226;BME280;55045;49.410;11.030;2022-09-09T03:49:38;97763.91;;;11.87;100.00
68226;BME280;55045;49.410;11.030;2022-09-09T03:52:41;97767.69;;;11.81;100.00
68226;BME280;55045;49.410;11.030;2022-09-09T03:55:54;97769.53;;;11.79;100.00
68226;BME280;55045;49.410;11.030;2022-09-09T03:59:00;97765.78;;;11.99;100.00
68226;BME280;55045;49.410;11.030;2022-09-09T04:02:03;97763.00;;;11.88;100.00
68226;BME280;55045;49.410;11.030;2022-09-09T04:05:09;97761.13;;;11.90;100.00
68226;BME280;55045;49.410;11.030;2022-09-09T04:08:15;97771.88;;;11.83;100.00
68226;BME280;55045;49.410;11.030;2022-09-09T04:11:18;97767.13;;;11.76;100.00
68226;BME280;55045;49.410;11.030;2022-09-09T04:14:24;97772.56;;;11.71;100.00
68226;BME280;55045;49.410;11.030;2022-09-09T04:17:31;97768.00;;;11.75;100.00
68226;BME280;55045;49.410;11.030;2022-09-09T04:20:36;97772.63;;;11.56;100.00
68226;BME280;55045;49.410;11.030;2022-09-09T04:23:44;97775.22;;;11.56;100.00
68226;BME280;55045;49.410;11.030;2022-09-09T04:27:01;97770.66;;;11.45;100.00
68226;BME280;55045;49.410;11.030;2022-09-09T04:30:14;97784.84;;;11.53;100.00
68226;BME280;55045;49.410;11.030;2022-09-09T04:33:23;97764.56;;;11.60;100.00
68226;BME280;55045;49.410;11.030;2022-09-09T04:36:29;97773.28;;;11.59;100.00
68226;BME280;55045;49.410;11.030;2022-09-09T04:39:36;97768.72;;;11.63;100.00
68226;BME280;55045;49.410;11.030;2022-09-09T04:42:40;97767.50;;;11.54;100.00
68226;BME280;55045;49.410;11.030;2022-09-09T04:45:49;97777.09;;;11.38;100.00
68226;BME280;55045;49.410;11.030;2022-09-09T04:48:56;97764.13;;;11.38;100.00
68226;BME280;55045;49.410;11.030;2022-09-09T04:52:04;97756.34;;;11.38;100.00
68226;BME280;55045;49.410;11.030;2022-09-09T04:55:09;97771.06;;;11.67;100.00
68226;BME280;55045;49.410;11.030;2022-09-09T04:58:18;97781.28;;;11.86;100.00
68226;BME280;55045;49.410;11.030;2022-09-09T05:01:24;97771.53;;;11.74;100.00
68226;BME280;55045;49.410;11.030;2022-09-09T05:04:32;97792.19;;;11.61;100.00
68226;BME280;55045;49.410;11.030;2022-09-09T05:07:36;97797.97;;;11.36;100.00
68226;BME280;55045;49.410;11.030;2022-09-09T05:10:40;97787.00;;;11.61;100.00
68226;BME280;55045;49.410;11.030;2022-09-09T05:13:44;97800.66;;;11.35;100.00
68226;BME280;55045;49.410;11.030;2022-09-09T05:16:48;97812.34;;;11.42;100.00
68226;BME280;55045;49.410;11.030;2022-09-09T05:19:51;97800.69;;;11.49;100.00
68226;BME280;55045;49.410;11.030;2022-09-09T05:22:57;97807.75;;;11.47;100.00
68226;BME280;55045;49.410;11.030;2022-09-09T05:26:04;97814.66;;;11.62;100.00
68226;BME280;55045;49.410;11.030;2022-09-09T05:29:07;97818.25;;;11.75;100.00
68226;BME280;55045;49.410;11.030;2022-09-09T05:32:11;97797.00;;;11.53;100.00
68226;BME280;55045;49.410;11.030;2022-09-09T05:35:18;97811.69;;;11.84;100.00
68226;BME280;55045;49.410;11.030;2022-09-09T05:38:24;97818.59;;;11.99;100.00
68226;BME280;55045;49.410;11.030;2022-09-09T05:41:38;97824.19;;;11.77;100.00
68226;BME280;55045;49.410;11.030;2022-09-09T05:44:43;97818.63;;;11.83;100.00
68226;BME280;55045;49.410;11.030;2022-09-09T05:47:51;97819.66;;;11.81;100.00
68226;BME280;55045;49.410;11.030;2022-09-09T05:50:55;97820.31;;;11.85;100.00
68226;BME280;55045;49.410;11.030;2022-09-09T05:54:08;97806.56;;;11.82;100.00
68226;BME280;55045;49.410;11.030;2022-09-09T05:57:18;97816.84;;;12.00;100.00
68226;BME280;55045;49.410;11.030;2022-09-09T06:00:21;97825.94;;;12.07;100.00
68226;BME280;55045;49.410;11.030;2022-09-09T06:03:25;97827.28;;;11.84;100.00
68226;BME280;55045;49.410;11.030;2022-09-09T06:06:33;97810.31;;;11.93;100.00
68226;BME280;55045;49.410;11.030;2022-09-09T06:09:44;97809.97;;;12.13;100.00
68226;BME280;55045;49.410;11.030;2022-09-09T06:12:47;97798.28;;;12.63;100.00
68226;BME280;55045;49.410;11.030;2022-09-09T06:15:51;97804.06;;;12.54;100.00
68226;BME280;55045;49.410;11.030;2022-09-09T06:18:56;97802.91;;;12.86;100.00
68226;BME280;55045;49.410;11.030;2022-09-09T06:22:00;97778.41;;;13.03;100.00
68226;BME280;55045;49.410;11.030;2022-09-09T06:25:09;97796.28;;;13.09;100.00
68226;BME280;55045;49.410;11.030;2022-09-09T06:28:13;97797.28;;;13.07;100.00
68226;BME280;55045;49.410;11.030;2022-09-09T06:31:20;97792.53;;;13.13;100.00
68226;BME280;55045;49.410;11.030;2022-09-09T06:35:04;97794.41;;;13.11;100.00
68226;BME280;55045;49.410;11.030;2022-09-09T06:38:11;97788.44;;;13.23;100.00
68226;BME280;55045;49.410;11.030;2022-09-09T06:41:17;97792.94;;;13.34;100.00
68226;BME280;55045;49.410;11.030;2022-09-09T06:44:21;97793.13;;;13.58;100.00
68226;BME280;55045;49.410;11.030;2022-09-09T06:47:24;97792.56;;;13.80;100.00
68226;BME280;55045;49.410;11.030;2022-09-09T06:50:30;97790.66;;;13.69;100.00
68226;BME280;55045;49.410;11.030;2022-09-09T06:53:35;97797.13;;;13.89;100.00
68226;BME280;55045;49.410;11.030;2022-09-09T06:56:41;97794.25;;;13.54;100.00
68226;BME280;55045;49.410;11.030;2022-09-09T06:59:55;97768.69;;;13.86;100.00
68226;BME280;55045;49.410;11.030;2022-09-09T07:02:59;97796.44;;;14.25;100.00
68226;BME280;55045;49.410;11.030;2022-09-09T07:06:03;97788.63;;;14.25;100.00
68226;BME280;55045;49.410;11.030;2022-09-09T07:09:08;97773.19;;;14.22;100.00
68226;BME280;55045;49.410;11.030;2022-09-09T07:12:15;97800.09;;;14.23;100.00
68226;BME280;55045;49.410;11.030;2022-09-09T07:15:26;97799.69;;;14.16;100.00
68226;BME280;55045;49.410;11.030;2022-09-09T07:18:30;97806.56;;;14.17;100.00
68226;BME280;55045;49.410;11.030;2022-09-09T07:21:33;97801.56;;;14.27;100.00
68226;BME280;55045;49.410;11.030;2022-09-09T07:24:37;97804.88;;;14.29;100.00
68226;BME280;55045;49.410;11.030;2022-09-09T07:27:43;97800.00;;;14.24;100.00
68226;BME280;55045;49.410;11.030;2022-09-09T07:30:53;97799.81;;;15.02;100.00
68226;BME280;55045;49.410;11.030;2022-09-09T07:33:57;97787.38;;;15.30;100.00
68226;BME280;55045;49.410;11.030;2022-09-09T07:37:02;97780.81;;;16.29;100.00
68226;BME280;55045;49.410;11.030;2022-09-09T07:40:07;97786.81;;;15.96;100.00
68226;BME280;55045;49.410;11.030;2022-09-09T07:43:12;97779.41;;;16.48;100.00
68226;BME280;55045;49.410;11.030;2022-09-09T07:46:19;97790.34;;;16.53;100.00
68226;BME280;55045;49.410;11.030;2022-09-09T07:49:22;97775.16;;;17.55;100.00
68226;BME280;55045;49.410;11.030;2022-09-09T07:52:34;97776.81;;;17.56;100.00
68226;BME280;55045;49.410;11.030;2022-09-09T07:55:40;97777.84;;;17.33;100.00
68226;BME280;55045;49.410;11.030;2022-09-09T07:58:46;97783.03;;;17.12;100.00
68226;BME280;55045;49.410;11.030;2022-09-09T08:01:51;97783.88;;;17.88;100.00
68226;BME280;55045;49.410;11.030;2022-09-09T08:04:59;97772.00;;;17.41;100.00
68226;BME280;55045;49.410;11.030;2022-09-09T08:08:02;97784.25;;;17.08;100.00
68226;BME280;55045;49.410;11.030;2022-09-09T08:11:08;97781.81;;;17.16;100.00
68226;BME280;55045;49.410;11.030;2022-09-09T08:14:13;97749.50;;;17.91;100.00
68226;BME280;55045;49.410;11.030;2022-09-09T08:17:17;97785.97;;;17.62;100.00
68226;BME280;55045;49.410;11.030;2022-09-09T08:20:21;97781.97;;;18.41;100.00
68226;BME280;55045;49.410;11.030;2022-09-09T08:23:25;97770.19;;;18.66;100.00
68226;BME280;55045;49.410;11.030;2022-09-09T08:26:30;97744.69;;;17.96;100.00
68226;BME280;55045;49.410;11.030;2022-09-09T08:29:35;97770.09;;;18.78;100.00
68226;BME280;55045;49.410;11.030;2022-09-09T08:32:40;97761.69;;;18.84;100.00
68226;BME280;55045;49.410;11.030;2022-09-09T08:35:50;97757.09;;;19.55;100.00
68226;BME280;55045;49.410;11.030;2022-09-09T08:38:55;97763.00;;;19.28;100.00
68226;BME280;55045;49.410;11.030;2022-09-09T08:42:23;97769.41;;;19.35;100.00
68226;BME280;55045;49.410;11.030;2022-09-09T08:45:37;97772.97;;;19.24;100.00
68226;BME280;55045;49.410;11.030;2022-09-09T08:48:52;97771.06;;;19.94;100.00
68226;BME280;55045;49.410;11.030;2022-09-09T08:51:59;97774.09;;;20.09;100.00
68226;BME280;55045;49.410;11.030;2022-09-09T08:55:22;97772.97;;;20.11;100.00
68226;BME280;55045;49.410;11.030;2022-09-09T08:58:31;97776.94;;;20.35;100.00
68226;BME280;55045;49.410;11.030;2022-09-09T09:01:49;97775.47;;;20.13;100.00
68226;BME280;55045;49.410;11.030;2022-09-09T09:05:11;97776.50;;;20.49;100.00
68226;BME280;55045;49.410;11.030;2022-09-09T09:08:26;97756.50;;;20.00;100.00
68226;BME280;55045;49.410;11.030;2022-09-09T09:11:37;97780.78;;;20.40;100.00
68226;BME280;55045;49.410;11.030;2022-09-09T09:14:44;97772.72;;;20.05;100.00
68226;BME280;55045;49.410;11.030;2022-09-09T09:17:51;97778.41;;;19.91;100.00
68226;BME280;55045;49.410;11.030;2022-09-09T09:21:00;97771.34;;;19.72;100.00
68226;BME280;55045;49.410;11.030;2022-09-09T09:24:14;97782.69;;;20.01;100.00
68226;BME280;55045;49.410;11.030;2022-09-09T09:27:31;97775.19;;;19.29;100.00
68226;BME280;55045;49.410;11.030;2022-09-09T09:34:15;97768.94;;;20.91;100.00
68226;BME280;55045;49.410;11.030;2022-09-09T09:37:26;97762.44;;;20.95;100.00
68226;BME280;55045;49.410;11.030;2022-09-09T09:40:33;97757.47;;;20.83;100.00
68226;BME280;55045;49.410;11.030;2022-09-09T09:43:40;97762.91;;;20.81;100.00
68226;BME280;55045;49.410;11.030;2022-09-09T09:46:48;97761.97;;;20.73;100.00
68226;BME280;55045;49.410;11.030;2022-09-09T09:49:53;97757.44;;;20.18;100.00
68226;BME280;55045;49.410;11.030;2022-09-09T09:52:59;97750.22;;;20.67;100.00
68226;BME280;55045;49.410;11.030;2022-09-09T09:56:05;97755.09;;;20.62;100.00
68226;BME280;55045;49.410;11.030;2022-09-09T09:59:20;97747.50;;;20.86;100.00
68226;BME280;55045;49.410;11.030;2022-09-09T10:02:40;97746.22;;;20.90;100.00
68226;BME280;55045;49.410;11.030;2022-09-09T10:05:52;97752.97;;;20.28;100.00
68226;BME280;55045;49.410;11.030;2022-09-09T10:08:57;97727.47;;;21.11;100.00
68226;BME280;55045;49.410;11.030;2022-09-09T10:12:07;97743.25;;;21.21;100.00
68226;BME280;55045;49.410;11.030;2022-09-09T10:15:30;97736.75;;;20.70;100.00
68226;BME280;55045;49.410;11.030;2022-09-09T10:18:41;97732.44;;;21.42;100.00
68226;BME280;55045;49.410;11.030;2022-09-09T10:21:57;97725.47;;;21.76;100.00
68226;BME280;55045;49.410;11.030;2022-09-09T10:25:20;97732.50;;;21.68;100.00
68226;BME280;55045;49.410;11.030;2022-09-09T10:28:50;97726.00;;;21.62;100.00
68226;BME280;55045;49.410;11.030;2022-09-09T10:32:08;97721.34;;;21.38;100.00
68226;BME280;55045;49.410;11.030;2022-09-09T10:35:27;97708.00;;;21.40;100.00
68226;BME280;55045;49.410;11.030;2022-09-09T10:38:39;97714.31;;;21.11;100.00
68226;BME280;55045;49.410;11.030;2022-09-09T10:41:50;97717.88;;;20.47;100.00
68226;BME280;55045;49.410;11.030;2022-09-09T10:45:06;97708.31;;;21.37;100.00
68226;BME280;55045;49.410;11.030;2022-09-09T10:48:27;97693.53;;;21.88;100.00
68226;BME280;55045;49.410;11.030;2022-09-09T10:51:40;97702.16;;;21.72;100.00
68226;BME280;55045;49.410;11.030;2022-09-09T10:54:54;97706.94;;;21.94;100.00
68226;BME280;55045;49.410;11.030;2022-09-09T10:58:02;97701.28;;;21.45;100.00
68226;BME280;55045;49.410;11.030;2022-09-09T11:01:11;97700.63;;;20.80;100.00
68226;BME280;55045;49.410;11.030;2022-09-09T11:04:21;97697.63;;;20.48;100.00
68226;BME280;55045;49.410;11.030;2022-09-09T11:07:29;97692.72;;;20.53;100.00
68226;BME280;55045;49.410;11.030;2022-09-09T11:10:41;97698.53;;;21.02;100.00
68226;BME280;55045;49.410;11.030;2022-09-09T11:13:53;97709.63;;;20.87;100.00
68226;BME280;55045;49.410;11.030;2022-09-09T11:17:01;97710.56;;;21.32;100.00
68226;BME280;55045;49.410;11.030;2022-09-09T11:20:06;97706.72;;;21.44;100.00
68226;BME280;55045;49.410;11.030;2022-09-09T11:23:12;97709.94;;;21.20;100.00
68226;BME280;55045;49.410;11.030;2022-09-09T11:26:28;97711.47;;;20.77;100.00
68226;BME280;55045;49.410;11.030;2022-09-09T11:30:13;97702.34;;;21.17;100.00
68226;BME280;55045;49.410;11.030;2022-09-09T11:33:51;97699.28;;;20.76;100.00
68226;BME280;55045;49.410;11.030;2022-09-09T11:37:10;97703.78;;;21.29;100.00
68226;BME280;55045;49.410;11.030;2022-09-09T11:40:27;97698.94;;;21.86;100.00
68226;BME280;55045;49.410;11.030;2022-09-09T11:43:39;97696.50;;;21.13;100.00
68226;BME280;55045;49.410;11.030;2022-09-09T11:46:46;97696.44;;;20.87;100.00
68226;BME280;55045;49.410;11.030;2022-09-09T11:49:54;97691.94;;;20.42;100.00
68226;BME280;55045;49.410;11.030;2022-09-09T11:53:19;97691.38;;;20.49;100.00
68226;BME280;55045;49.410;11.030;2022-09-09T11:56:26;97701.09;;;20.38;100.00
68226;BME280;55045;49.410;11.030;2022-09-09T11:59:32;97697.38;;;20.68;100.00
68226;BME280;55045;49.410;11.030;2022-09-09T12:02:48;97708.00;;;20.49;100.00
68226;BME280;55045;49.410;11.030;2022-09-09T12:05:52;97709.63;;;19.66;100.00
68226;BME280;55045;49.410;11.030;2022-09-09T12:08:58;97719.84;;;19.50;100.00
68226;BME280;55045;49.410;11.030;2022-09-09T12:12:26;97717.44;;;18.89;100.00
68226;BME280;55045;49.410;11.030;2022-09-09T12:15:31;97711.22;;;18.09;100.00
68226;BME280;55045;49.410;11.030;2022-09-09T12:18:37;97701.66;;;17.78;100.00
68226;BME280;55045;49.410;11.030;2022-09-09T12:21:46;97686.59;;;17.59;100.00
68226;BME280;55045;49.410;11.030;2022-09-09T12:24:57;97693.28;;;18.14;100.00
68226;BME280;55045;49.410;11.030;2022-09-09T12:28:08;97682.84;;;18.34;100.00
68226;BME280;55045;49.410;11.030;2022-09-09T12:31:17;97659.59;;;18.69;100.00
68226;BME280;55045;49.410;11.030;2022-09-09T12:34:35;97694.66;;;19.38;100.00
68226;BME280;55045;49.410;11.030;2022-09-09T12:37:43;97691.41;;;19.92;100.00
68226;BME280;55045;49.410;11.030;2022-09-09T12:40:54;97686.16;;;20.29;100.00
68226;BME280;55045;49.410;11.030;2022-09-09T12:44:03;97632.25;;;20.33;100.00
68226;BME280;55045;49.410;11.030;2022-09-09T12:47:12;97677.25;;;21.31;100.00
68226;BME280;55045;49.410;11.030;2022-09-09T12:50:20;97668.97;;;21.25;100.00
68226;BME280;55045;49.410;11.030;2022-09-09T12:53:26;97664.34;;;21.10;100.00
68226;BME280;55045;49.410;11.030;2022-09-09T12:56:31;97669.63;;;21.10;100.00
68226;BME280;55045;49.410;11.030;2022-09-09T12:59:37;97692.41;;;20.28;100.00
68226;BME280;55045;49.410;11.030;2022-09-09T13:02:51;97702.97;;;19.23;100.00
68226;BME280;55045;49.410;11.030;2022-09-09T13:05:58;97697.84;;;18.53;100.00
68226;BME280;55045;49.410;11.030;2022-09-09T13:09:03;97691.19;;;18.18;100.00
68226;BME280;55045;49.410;11.030;2022-09-09T13:12:13;97694.06;;;18.05;100.00
68226;BME280;55045;49.410;11.030;2022-09-09T13:15:21;97693.53;;;18.11;100.00
68226;BME280;55045;49.410;11.030;2022-09-09T13:18:28;97671.84;;;18.59;100.00
68226;BME280;55045;49.410;11.030;2022-09-09T13:21:34;97679.41;;;19.51;100.00
68226;BME280;55045;49.410;11.030;2022-09-09T13:24:37;97636.94;;;19.36;100.00
68226;BME280;55045;49.410;11.030;2022-09-09T13:27:41;97677.66;;;19.22;100.00
68226;BME280;55045;49.410;11.030;2022-09-09T13:30:56;97665.72;;;18.99;100.00
68226;BME280;55045;49.410;11.030;2022-09-09T13:34:12;97655.94;;;19.11;100.00
68226;BME280;55045;49.410;11.030;2022-09-09T13:37:22;97653.19;;;19.88;100.00
68226;BME280;55045;49.410;11.030;2022-09-09T13:40:27;97646.19;;;19.50;100.00
68226;BME280;55045;49.410;11.030;2022-09-09T13:43:35;97653.84;;;19.24;100.00
68226;BME280;55045;49.410;11.030;2022-09-09T13:46:41;97651.03;;;19.74;100.00
68226;BME280;55045;49.410;11.030;2022-09-09T13:49:46;97654.19;;;19.77;100.00
68226;BME280;55045;49.410;11.030;2022-09-09T13:52:51;97627.88;;;19.77;100.00
68226;BME280;55045;49.410;11.030;2022-09-09T13:55:54;97653.81;;;19.53;100.00
68226;BME280;55045;49.410;11.030;2022-09-09T13:58:58;97618.22;;;19.49;100.00
68226;BME280;55045;49.410;11.030;2022-09-09T14:02:02;97635.41;;;19.63;100.00
68226;BME280;55045;49.410;11.030;2022-09-09T14:05:07;97644.47;;;19.88;100.00
68226;BME280;55045;49.410;11.030;2022-09-09T14:08:16;97648.25;;;19.75;100.00
68226;BME280;55045;49.410;11.030;2022-09-09T14:11:22;97649.66;;;19.70;100.00
68226;BME280;55045;49.410;11.030;2022-09-09T14:14:25;97651.63;;;19.58;100.00
68226;BME280;55045;49.410;11.030;2022-09-09T14:17:28;97656.44;;;19.72;100.00
68226;BME280;55045;49.410;11.030;2022-09-09T14:20:34;97534.22;;;18.91;100.00
68226;BME280;55045;49.410;11.030;2022-09-09T14:23:37;97654.38;;;19.37;100.00
68226;BME280;55045;49.410;11.030;2022-09-09T14:26:41;97671.69;;;19.59;100.00
68226;BME280;55045;49.410;11.030;2022-09-09T14:29:44;97679.97;;;18.96;100.00
68226;BME280;55045;49.410;11.030;2022-09-09T14:32:47;97686.34;;;18.94;100.00
68226;BME280;55045;49.410;11.030;2022-09-09T14:35:56;97692.94;;;18.79;100.00
68226;BME280;55045;49.410;11.030;2022-09-09T14:39:00;97692.72;;;18.91;100.00
68226;BME280;55045;49.410;11.030;2022-09-09T14:42:04;97689.13;;;18.92;100.00
68226;BME280;55045;49.410;11.030;2022-09-09T14:45:07;97673.06;;;19.24;100.00
68226;BME280;55045;49.410;11.030;2022-09-09T14:48:11;97695.91;;;19.14;100.00
68226;BME280;55045;49.410;11.030;2022-09-09T14:51:17;97668.09;;;19.21;100.00
68226;BME280;55045;49.410;11.030;2022-09-09T14:54:21;97707.38;;;19.71;100.00
68226;BME280;55045;49.410;11.030;2022-09-09T14:57:24;97704.16;;;19.97;100.00
68226;BME280;55045;49.410;11.030;2022-09-09T15:00:27;97698.66;;;19.61;100.00
68226;BME280;55045;49.410;11.030;2022-09-09T15:03:31;97693.41;;;19.61;100.00
68226;BME280;55045;49.410;11.030;2022-09-09T15:06:35;97683.06;;;19.21;100.00
68226;BME280;55045;49.410;11.030;2022-09-09T15:09:40;97685.78;;;19.48;100.00
68226;BME280;55045;49.410;11.030;2022-09-09T15:12:43;97678.44;;;19.71;100.00
68226;BME280;55045;49.410;11.030;2022-09-09T15:15:47;97675.22;;;19.87;100.00
68226;BME280;55045;49.410;11.030;2022-09-09T15:18:53;97665.19;;;19.63;100.00
68226;BME280;55045;49.410;11.030;2022-09-09T15:21:58;97659.19;;;19.71;100.00
68226;BME280;55045;49.410;11.030;2022-09-09T15:25:02;97646.78;;;19.34;100.00
68226;BME280;55045;49.410;11.030;2022-09-09T15:28:05;97621.63;;;18.83;100.00
68226;BME280;55045;49.410;11.030;2022-09-09T15:34:15;97648.59;;;19.14;100.00
68226;BME280;55045;49.410;11.030;2022-09-09T15:37:19;97641.00;;;19.21;100.00
68226;BME280;55045;49.410;11.030;2022-09-09T15:40:22;97634.88;;;19.20;100.00
68226;BME280;55045;49.410;11.030;2022-09-09T15:43:25;97634.03;;;19.10;100.00
68226;BME280;55045;49.410;11.030;2022-09-09T15:46:31;97636.13;;;19.16;100.00
68226;BME280;55045;49.410;11.030;2022-09-09T15:49:36;97635.44;;;19.34;100.00
68226;BME280;55045;49.410;11.030;2022-09-09T15:52:40;97607.50;;;18.94;100.00
68226;BME280;55045;49.410;11.030;2022-09-09T15:55:43;97632.97;;;19.13;100.00
68226;BME280;55045;49.410;11.030;2022-09-09T15:58:49;97635.97;;;19.27;100.00
68226;BME280;55045;49.410;11.030;2022-09-09T16:01:54;97638.22;;;19.13;100.00
68226;BME280;55045;49.410;11.030;2022-09-09T16:04:59;97638.22;;;19.03;100.00
68226;BME280;55045;49.410;11.030;2022-09-09T16:08:03;97640.38;;;18.69;100.00
68226;BME280;55045;49.410;11.030;2022-09-09T16:11:07;97618.91;;;18.54;100.00
68226;BME280;55045;49.410;11.030;2022-09-09T16:14:14;97621.00;;;18.51;100.00
68226;BME280;55045;49.410;11.030;2022-09-09T16:17:20;97654.50;;;18.78;100.00
68226;BME280;55045;49.410;11.030;2022-09-09T16:20:24;97649.56;;;18.94;100.00
68226;BME280;55045;49.410;11.030;2022-09-09T16:23:28;97650.66;;;18.91;100.00